sensor_id;sensor_type;location;lat;lon;timestamp;P1;durP1;ratioP1;P2;durP2;ratioP2
43449;SDS011;29041;42.266;23.110;2023-05-20T00:00:12;5.68;;;3.42;;
43449;SDS011;29041;42.266;23.110;2023-05-20T00:02:59;6.70;;;3.25;;
43449;SDS011;29041;42.266;23.110;2023-05-20T00:05:46;5.70;;;4.25;;
43449;SDS011;29041;42.266;23.110;2023-05-20T00:08:33;6.28;;;3.55;;
43449;SDS011;29041;42.266;23.110;2023-05-20T00:11:21;7.55;;;3.65;;
43449;SDS011;29041;42.266;23.110;2023-05-20T00:14:08;6.32;;;4.00;;
43449;SDS011;29041;42.266;23.110;2023-05-20T00:16:55;6.20;;;4.18;;
43449;SDS011;29041;42.266;23.110;2023-05-20T00:19:43;5.88;;;3.85;;
43449;SDS011;29041;42.266;23.110;2023-05-20T00:22:30;4.97;;;3.90;;
43449;SDS011;29041;42.266;23.110;2023-05-20T00:25:17;8.23;;;3.60;;
43449;SDS011;29041;42.266;23.110;2023-05-20T00:28:09;7.35;;;4.10;;
43449;SDS011;29041;42.266;23.110;2023-05-20T00:30:57;14.45;;;4.78;;
43449;SDS011;29041;42.266;23.110;2023-05-20T00:33:44;5.80;;;3.70;;
43449;SDS011;29041;42.266;23.110;2023-05-20T00:36:33;7.18;;;3.90;;
43449;SDS011;29041;42.266;23.110;2023-05-20T00:39:21;5.50;;;3.22;;
43449;SDS011;29041;42.266;23.110;2023-05-20T00:42:07;7.00;;;4.22;;
43449;SDS011;29041;42.266;23.110;2023-05-20T00:44:56;7.00;;;4.50;;
43449;SDS011;29041;42.266;23.110;2023-05-20T00:47:42;5.93;;;3.72;;
43449;SDS011;29041;42.266;23.110;2023-05-20T00:50:29;7.50;;;4.00;;
43449;SDS011;29041;42.266;23.110;2023-05-20T00:53:17;7.25;;;4.25;;
43449;SDS011;29041;42.266;23.110;2023-05-20T00:56:04;6.43;;;4.43;;
43449;SDS011;29041;42.266;23.110;2023-05-20T00:58:51;8.70;;;3.67;;
43449;SDS011;29041;42.266;23.110;2023-05-20T01:01:40;6.93;;;4.18;;
43449;SDS011;29041;42.266;23.110;2023-05-20T01:04:27;6.55;;;3.92;;
43449;SDS011;29041;42.266;23.110;2023-05-20T01:07:14;8.40;;;5.05;;
43449;SDS011;29041;42.266;23.110;2023-05-20T01:10:02;6.55;;;4.32;;
43449;SDS011;29041;42.266;23.110;2023-05-20T01:12:49;6.10;;;4.22;;
43449;SDS011;29041;42.266;23.110;2023-05-20T01:15:40;7.82;;;3.92;;
43449;SDS011;29041;42.266;23.110;2023-05-20T01:18:29;6.35;;;4.00;;
43449;SDS011;29041;42.266;23.110;2023-05-20T01:21:17;10.80;;;5.18;;
43449;SDS011;29041;42.266;23.110;2023-05-20T01:24:06;7.60;;;4.28;;
43449;SDS011;29041;42.266;23.110;2023-05-20T01:26:53;6.78;;;4.03;;
43449;SDS011;29041;42.266;23.110;2023-05-20T01:29:42;6.03;;;4.53;;
43449;SDS011;29041;42.266;23.110;2023-05-20T01:32:31;7.78;;;4.13;;
43449;SDS011;29041;42.266;23.110;2023-05-20T01:35:21;5.93;;;3.55;;
43449;SDS011;29041;42.266;23.110;2023-05-20T01:38:08;8.52;;;4.90;;
43449;SDS011;29041;42.266;23.110;2023-05-20T01:40:57;10.05;;;4.50;;
43449;SDS011;29041;42.266;23.110;2023-05-20T01:43:45;5.80;;;3.70;;
43449;SDS011;29041;42.266;23.110;2023-05-20T01:46:32;11.25;;;4.05;;
43449;SDS011;29041;42.266;23.110;2023-05-20T01:49:19;6.35;;;4.32;;
43449;SDS011;29041;42.266;23.110;2023-05-20T01:52:06;9.63;;;4.70;;
43449;SDS011;29041;42.266;23.110;2023-05-20T01:54:52;15.25;;;6.10;;
43449;SDS011;29041;42.266;23.110;2023-05-20T01:57:41;7.53;;;4.53;;
43449;SDS011;29041;42.266;23.110;2023-05-20T02:00:29;12.32;;;4.53;;
43449;SDS011;29041;42.266;23.110;2023-05-20T02:03:16;6.60;;;4.32;;
43449;SDS011;29041;42.266;23.110;2023-05-20T02:06:03;8.45;;;4.70;;
43449;SDS011;29041;42.266;23.110;2023-05-20T02:08:50;10.95;;;5.57;;
43449;SDS011;29041;42.266;23.110;2023-05-20T02:11:37;11.40;;;5.97;;
43449;SDS011;29041;42.266;23.110;2023-05-20T02:14:25;9.80;;;4.43;;
43449;SDS011;29041;42.266;23.110;2023-05-20T02:17:13;7.25;;;4.50;;
43449;SDS011;29041;42.266;23.110;2023-05-20T02:20:00;9.32;;;5.60;;
43449;SDS011;29041;42.266;23.110;2023-05-20T02:22:50;8.90;;;4.93;;
43449;SDS011;29041;42.266;23.110;2023-05-20T02:25:37;8.77;;;5.28;;
43449;SDS011;29041;42.266;23.110;2023-05-20T02:28:24;9.73;;;5.10;;
43449;SDS011;29041;42.266;23.110;2023-05-20T02:31:12;9.80;;;5.85;;
43449;SDS011;29041;42.266;23.110;2023-05-20T02:33:59;9.50;;;5.07;;
43449;SDS011;29041;42.266;23.110;2023-05-20T02:36:46;9.35;;;4.75;;
43449;SDS011;29041;42.266;23.110;2023-05-20T02:39:33;8.30;;;4.43;;
43449;SDS011;29041;42.266;23.110;2023-05-20T02:42:20;8.80;;;4.53;;
43449;SDS011;29041;42.266;23.110;2023-05-20T02:45:07;7.55;;;4.63;;
43449;SDS011;29041;42.266;23.110;2023-05-20T02:47:56;8.57;;;5.25;;
43449;SDS011;29041;42.266;23.110;2023-05-20T02:50:42;10.60;;;4.85;;
43449;SDS011;29041;42.266;23.110;2023-05-20T02:53:31;9.45;;;5.47;;
43449;SDS011;29041;42.266;23.110;2023-05-20T02:56:18;14.00;;;5.07;;
43449;SDS011;29041;42.266;23.110;2023-05-20T02:59:05;9.23;;;5.35;;
43449;SDS011;29041;42.266;23.110;2023-05-20T03:01:53;8.27;;;4.32;;
43449;SDS011;29041;42.266;23.110;2023-05-20T03:04:41;9.52;;;3.78;;
43449;SDS011;29041;42.266;23.110;2023-05-20T03:07:32;14.65;;;5.00;;
43449;SDS011;29041;42.266;23.110;2023-05-20T03:10:21;7.88;;;4.00;;
43449;SDS011;29041;42.266;23.110;2023-05-20T03:13:09;7.68;;;4.72;;
43449;SDS011;29041;42.266;23.110;2023-05-20T03:15:56;7.60;;;4.55;;
43449;SDS011;29041;42.266;23.110;2023-05-20T03:18:43;8.23;;;5.07;;
43449;SDS011;29041;42.266;23.110;2023-05-20T03:21:32;8.05;;;4.90;;
43449;SDS011;29041;42.266;23.110;2023-05-20T03:24:18;7.57;;;4.65;;
43449;SDS011;29041;42.266;23.110;2023-05-20T03:27:09;7.53;;;4.47;;
43449;SDS011;29041;42.266;23.110;2023-05-20T03:29:56;8.02;;;4.97;;
43449;SDS011;29041;42.266;23.110;2023-05-20T03:32:43;10.63;;;5.57;;
43449;SDS011;29041;42.266;23.110;2023-05-20T03:35:30;8.25;;;4.97;;
43449;SDS011;29041;42.266;23.110;2023-05-20T03:38:18;9.15;;;5.10;;
43449;SDS011;29041;42.266;23.110;2023-05-20T03:41:05;10.23;;;5.00;;
43449;SDS011;29041;42.266;23.110;2023-05-20T03:43:52;7.53;;;4.68;;
43449;SDS011;29041;42.266;23.110;2023-05-20T03:46:39;9.30;;;5.60;;
43449;SDS011;29041;42.266;23.110;2023-05-20T03:49:26;9.93;;;5.60;;
43449;SDS011;29041;42.266;23.110;2023-05-20T03:52:13;8.77;;;5.28;;
43449;SDS011;29041;42.266;23.110;2023-05-20T03:55:02;10.57;;;4.93;;
43449;SDS011;29041;42.266;23.110;2023-05-20T03:57:49;7.93;;;5.18;;
43449;SDS011;29041;42.266;23.110;2023-05-20T04:00:36;11.48;;;5.40;;
43449;SDS011;29041;42.266;23.110;2023-05-20T04:03:23;10.90;;;5.13;;
43449;SDS011;29041;42.266;23.110;2023-05-20T04:06:10;11.05;;;5.60;;
43449;SDS011;29041;42.266;23.110;2023-05-20T04:08:57;9.20;;;4.88;;
43449;SDS011;29041;42.266;23.110;2023-05-20T04:11:45;8.48;;;5.57;;
43449;SDS011;29041;42.266;23.110;2023-05-20T04:14:32;8.02;;;4.53;;
43449;SDS011;29041;42.266;23.110;2023-05-20T04:17:19;9.65;;;5.15;;
43449;SDS011;29041;42.266;23.110;2023-05-20T04:20:06;9.07;;;5.93;;
43449;SDS011;29041;42.266;23.110;2023-05-20T04:25:34;8.55;;;5.70;;
43449;SDS011;29041;42.266;23.110;2023-05-20T04:28:23;9.63;;;5.75;;
43449;SDS011;29041;42.266;23.110;2023-05-20T04:31:12;8.75;;;5.30;;
43449;SDS011;29041;42.266;23.110;2023-05-20T04:33:59;8.60;;;4.47;;
43449;SDS011;29041;42.266;23.110;2023-05-20T04:36:47;9.32;;;5.30;;
43449;SDS011;29041;42.266;23.110;2023-05-20T04:39:34;11.18;;;5.32;;
43449;SDS011;29041;42.266;23.110;2023-05-20T04:42:20;11.73;;;6.05;;
43449;SDS011;29041;42.266;23.110;2023-05-20T04:45:09;10.18;;;6.00;;
43449;SDS011;29041;42.266;23.110;2023-05-20T04:47:56;11.43;;;5.55;;
43449;SDS011;29041;42.266;23.110;2023-05-20T04:50:44;10.93;;;5.90;;
43449;SDS011;29041;42.266;23.110;2023-05-20T04:53:31;13.10;;;8.50;;
43449;SDS011;29041;42.266;23.110;2023-05-20T04:56:20;9.65;;;5.55;;
43449;SDS011;29041;42.266;23.110;2023-05-20T04:59:07;13.73;;;7.00;;
43449;SDS011;29041;42.266;23.110;2023-05-20T05:01:58;15.23;;;8.10;;
43449;SDS011;29041;42.266;23.110;2023-05-20T05:04:47;12.18;;;7.05;;
43449;SDS011;29041;42.266;23.110;2023-05-20T05:07:33;11.27;;;6.18;;
43449;SDS011;29041;42.266;23.110;2023-05-20T05:10:20;14.27;;;6.97;;
43449;SDS011;29041;42.266;23.110;2023-05-20T05:13:09;9.07;;;5.50;;
43449;SDS011;29041;42.266;23.110;2023-05-20T05:15:56;14.52;;;7.68;;
43449;SDS011;29041;42.266;23.110;2023-05-20T05:18:47;11.52;;;6.15;;
43449;SDS011;29041;42.266;23.110;2023-05-20T05:21:35;12.65;;;7.45;;
43449;SDS011;29041;42.266;23.110;2023-05-20T05:24:22;11.32;;;5.80;;
43449;SDS011;29041;42.266;23.110;2023-05-20T05:27:11;9.02;;;4.70;;
43449;SDS011;29041;42.266;23.110;2023-05-20T05:29:57;10.40;;;6.15;;
43449;SDS011;29041;42.266;23.110;2023-05-20T05:32:47;9.82;;;6.03;;
43449;SDS011;29041;42.266;23.110;2023-05-20T05:35:37;14.90;;;6.43;;
43449;SDS011;29041;42.266;23.110;2023-05-20T05:38:25;14.88;;;5.80;;
43449;SDS011;29041;42.266;23.110;2023-05-20T05:41:12;11.32;;;5.63;;
43449;SDS011;29041;42.266;23.110;2023-05-20T05:43:59;10.55;;;5.40;;
43449;SDS011;29041;42.266;23.110;2023-05-20T05:46:48;11.70;;;5.43;;
43449;SDS011;29041;42.266;23.110;2023-05-20T05:49:35;9.73;;;5.97;;
43449;SDS011;29041;42.266;23.110;2023-05-20T05:55:25;14.50;;;5.80;;
43449;SDS011;29041;42.266;23.110;2023-05-20T05:58:12;12.18;;;4.78;;
43449;SDS011;29041;42.266;23.110;2023-05-20T06:00:59;13.00;;;5.35;;
43449;SDS011;29041;42.266;23.110;2023-05-20T06:03:46;9.27;;;4.55;;
43449;SDS011;29041;42.266;23.110;2023-05-20T06:06:33;12.70;;;5.05;;
43449;SDS011;29041;42.266;23.110;2023-05-20T06:09:20;7.88;;;4.82;;
43449;SDS011;29041;42.266;23.110;2023-05-20T06:12:08;20.48;;;7.00;;
43449;SDS011;29041;42.266;23.110;2023-05-20T06:14:55;12.40;;;5.32;;
43449;SDS011;29041;42.266;23.110;2023-05-20T06:17:42;8.88;;;5.20;;
43449;SDS011;29041;42.266;23.110;2023-05-20T06:20:29;8.63;;;4.88;;
43449;SDS011;29041;42.266;23.110;2023-05-20T06:23:16;9.30;;;4.32;;
43449;SDS011;29041;42.266;23.110;2023-05-20T06:26:03;9.95;;;4.75;;
43449;SDS011;29041;42.266;23.110;2023-05-20T06:28:51;9.52;;;5.22;;
43449;SDS011;29041;42.266;23.110;2023-05-20T06:31:38;7.07;;;4.40;;
43449;SDS011;29041;42.266;23.110;2023-05-20T06:34:25;7.05;;;3.60;;
43449;SDS011;29041;42.266;23.110;2023-05-20T06:37:12;8.43;;;4.55;;
43449;SDS011;29041;42.266;23.110;2023-05-20T06:40:00;7.38;;;3.92;;
43449;SDS011;29041;42.266;23.110;2023-05-20T06:42:46;7.97;;;3.50;;
43449;SDS011;29041;42.266;23.110;2023-05-20T06:45:35;8.43;;;4.15;;
43449;SDS011;29041;42.266;23.110;2023-05-20T06:48:22;7.60;;;3.65;;
43449;SDS011;29041;42.266;23.110;2023-05-20T06:51:09;6.13;;;3.95;;
43449;SDS011;29041;42.266;23.110;2023-05-20T06:53:57;9.63;;;3.72;;
43449;SDS011;29041;42.266;23.110;2023-05-20T06:56:44;5.68;;;3.40;;
43449;SDS011;29041;42.266;23.110;2023-05-20T06:59:31;6.18;;;3.30;;
43449;SDS011;29041;42.266;23.110;2023-05-20T07:02:19;9.07;;;4.03;;
43449;SDS011;29041;42.266;23.110;2023-05-20T07:05:07;5.15;;;3.30;;
43449;SDS011;29041;42.266;23.110;2023-05-20T07:07:53;8.40;;;4.30;;
43449;SDS011;29041;42.266;23.110;2023-05-20T07:10:41;11.10;;;4.60;;
43449;SDS011;29041;42.266;23.110;2023-05-20T07:13:28;8.23;;;3.55;;
43449;SDS011;29041;42.266;23.110;2023-05-20T07:16:15;7.95;;;3.80;;
43449;SDS011;29041;42.266;23.110;2023-05-20T07:19:03;7.25;;;3.70;;
43449;SDS011;29041;42.266;23.110;2023-05-20T07:21:50;7.60;;;3.72;;
43449;SDS011;29041;42.266;23.110;2023-05-20T07:24:37;4.10;;;2.78;;
43449;SDS011;29041;42.266;23.110;2023-05-20T07:27:24;9.65;;;3.28;;
43449;SDS011;29041;42.266;23.110;2023-05-20T07:30:11;5.53;;;3.90;;
43449;SDS011;29041;42.266;23.110;2023-05-20T07:32:58;5.88;;;3.28;;
43449;SDS011;29041;42.266;23.110;2023-05-20T07:35:46;4.28;;;3.53;;
43449;SDS011;29041;42.266;23.110;2023-05-20T07:38:33;5.07;;;3.25;;
43449;SDS011;29041;42.266;23.110;2023-05-20T07:41:20;5.57;;;2.83;;
43449;SDS011;29041;42.266;23.110;2023-05-20T07:44:07;9.13;;;5.18;;
43449;SDS011;29041;42.266;23.110;2023-05-20T07:46:55;4.63;;;3.17;;
43449;SDS011;29041;42.266;23.110;2023-05-20T07:49:42;6.18;;;3.03;;
43449;SDS011;29041;42.266;23.110;2023-05-20T07:52:32;5.53;;;3.40;;
43449;SDS011;29041;42.266;23.110;2023-05-20T07:55:19;7.28;;;3.75;;
43449;SDS011;29041;42.266;23.110;2023-05-20T07:58:06;6.20;;;2.78;;
43449;SDS011;29041;42.266;23.110;2023-05-20T08:00:53;4.30;;;2.53;;
43449;SDS011;29041;42.266;23.110;2023-05-20T08:03:40;4.90;;;3.25;;
43449;SDS011;29041;42.266;23.110;2023-05-20T08:06:27;5.70;;;3.88;;
43449;SDS011;29041;42.266;23.110;2023-05-20T08:09:15;5.43;;;3.08;;
43449;SDS011;29041;42.266;23.110;2023-05-20T08:12:02;5.40;;;3.15;;
43449;SDS011;29041;42.266;23.110;2023-05-20T08:14:49;4.25;;;2.47;;
43449;SDS011;29041;42.266;23.110;2023-05-20T08:17:36;5.00;;;2.70;;
43449;SDS011;29041;42.266;23.110;2023-05-20T08:20:23;3.22;;;2.10;;
43449;SDS011;29041;42.266;23.110;2023-05-20T08:23:10;2.90;;;2.38;;
43449;SDS011;29041;42.266;23.110;2023-05-20T08:25:59;2.40;;;2.10;;
43449;SDS011;29041;42.266;23.110;2023-05-20T08:28:47;4.13;;;2.60;;
43449;SDS011;29041;42.266;23.110;2023-05-20T08:31:34;4.03;;;2.55;;
43449;SDS011;29041;42.266;23.110;2023-05-20T08:34:21;3.83;;;3.17;;
43449;SDS011;29041;42.266;23.110;2023-05-20T08:37:08;4.88;;;2.75;;
43449;SDS011;29041;42.266;23.110;2023-05-20T08:39:55;7.05;;;1.98;;
43449;SDS011;29041;42.266;23.110;2023-05-20T08:42:43;6.50;;;2.38;;
43449;SDS011;29041;42.266;23.110;2023-05-20T08:45:31;3.15;;;1.95;;
43449;SDS011;29041;42.266;23.110;2023-05-20T08:48:18;2.75;;;1.92;;
43449;SDS011;29041;42.266;23.110;2023-05-20T08:51:08;4.15;;;2.03;;
43449;SDS011;29041;42.266;23.110;2023-05-20T08:53:55;2.83;;;2.15;;
43449;SDS011;29041;42.266;23.110;2023-05-20T08:56:42;2.38;;;1.60;;
43449;SDS011;29041;42.266;23.110;2023-05-20T08:59:30;3.08;;;1.42;;
43449;SDS011;29041;42.266;23.110;2023-05-20T09:02:18;4.80;;;1.92;;
43449;SDS011;29041;42.266;23.110;2023-05-20T09:05:05;2.65;;;1.60;;
43449;SDS011;29041;42.266;23.110;2023-05-20T09:08:03;3.15;;;1.40;;
43449;SDS011;29041;42.266;23.110;2023-05-20T09:10:51;4.07;;;1.92;;
43449;SDS011;29041;42.266;23.110;2023-05-20T09:13:37;2.67;;;1.60;;
43449;SDS011;29041;42.266;23.110;2023-05-20T09:16:26;6.30;;;1.98;;
43449;SDS011;29041;42.266;23.110;2023-05-20T09:19:12;2.30;;;1.60;;
43449;SDS011;29041;42.266;23.110;2023-05-20T09:21:59;2.83;;;1.80;;
43449;SDS011;29041;42.266;23.110;2023-05-20T09:24:49;2.42;;;1.67;;
43449;SDS011;29041;42.266;23.110;2023-05-20T09:27:36;4.63;;;2.50;;
43449;SDS011;29041;42.266;23.110;2023-05-20T09:30:23;2.53;;;1.80;;
43449;SDS011;29041;42.266;23.110;2023-05-20T09:33:11;2.83;;;2.20;;
43449;SDS011;29041;42.266;23.110;2023-05-20T09:36:02;5.22;;;1.88;;
43449;SDS011;29041;42.266;23.110;2023-05-20T09:38:50;3.25;;;2.28;;
43449;SDS011;29041;42.266;23.110;2023-05-20T09:41:38;2.55;;;1.80;;
43449;SDS011;29041;42.266;23.110;2023-05-20T09:44:25;3.00;;;1.88;;
43449;SDS011;29041;42.266;23.110;2023-05-20T09:47:13;3.90;;;2.10;;
43449;SDS011;29041;42.266;23.110;2023-05-20T09:50:02;3.60;;;2.50;;
43449;SDS011;29041;42.266;23.110;2023-05-20T09:52:50;4.20;;;2.08;;
43449;SDS011;29041;42.266;23.110;2023-05-20T09:55:37;3.30;;;1.77;;
43449;SDS011;29041;42.266;23.110;2023-05-20T09:58:24;3.83;;;1.98;;
43449;SDS011;29041;42.266;23.110;2023-05-20T10:01:12;3.47;;;1.67;;
43449;SDS011;29041;42.266;23.110;2023-05-20T10:03:58;6.47;;;3.50;;
43449;SDS011;29041;42.266;23.110;2023-05-20T10:06:54;5.55;;;3.53;;
43449;SDS011;29041;42.266;23.110;2023-05-20T10:09:47;4.57;;;3.08;;
43449;SDS011;29041;42.266;23.110;2023-05-20T10:12:37;3.22;;;2.03;;
43449;SDS011;29041;42.266;23.110;2023-05-20T10:15:27;3.38;;;2.42;;
43449;SDS011;29041;42.266;23.110;2023-05-20T10:18:22;3.00;;;1.92;;
43449;SDS011;29041;42.266;23.110;2023-05-20T10:21:14;3.65;;;2.15;;
43449;SDS011;29041;42.266;23.110;2023-05-20T10:24:06;4.68;;;2.97;;
43449;SDS011;29041;42.266;23.110;2023-05-20T10:26:54;2.78;;;1.73;;
43449;SDS011;29041;42.266;23.110;2023-05-20T10:29:41;3.40;;;2.38;;
43449;SDS011;29041;42.266;23.110;2023-05-20T10:32:29;3.63;;;2.15;;
43449;SDS011;29041;42.266;23.110;2023-05-20T10:35:19;4.05;;;2.85;;
43449;SDS011;29041;42.266;23.110;2023-05-20T10:38:07;3.22;;;1.70;;
43449;SDS011;29041;42.266;23.110;2023-05-20T10:40:56;4.43;;;2.05;;
43449;SDS011;29041;42.266;23.110;2023-05-20T10:44:00;2.95;;;2.20;;
43449;SDS011;29041;42.266;23.110;2023-05-20T10:46:47;2.38;;;1.88;;
43449;SDS011;29041;42.266;23.110;2023-05-20T10:49:47;6.70;;;1.83;;
43449;SDS011;29041;42.266;23.110;2023-05-20T10:52:35;9.60;;;2.67;;
43449;SDS011;29041;42.266;23.110;2023-05-20T10:55:22;9.85;;;3.03;;
43449;SDS011;29041;42.266;23.110;2023-05-20T10:58:10;3.97;;;2.10;;
43449;SDS011;29041;42.266;23.110;2023-05-20T11:00:57;3.78;;;1.70;;
43449;SDS011;29041;42.266;23.110;2023-05-20T11:03:44;3.00;;;2.05;;
43449;SDS011;29041;42.266;23.110;2023-05-20T11:06:31;3.13;;;1.67;;
43449;SDS011;29041;42.266;23.110;2023-05-20T11:09:18;5.60;;;1.85;;
43449;SDS011;29041;42.266;23.110;2023-05-20T11:12:05;5.47;;;2.13;;
43449;SDS011;29041;42.266;23.110;2023-05-20T11:14:54;2.38;;;1.80;;
43449;SDS011;29041;42.266;23.110;2023-05-20T11:17:50;5.20;;;2.80;;
43449;SDS011;29041;42.266;23.110;2023-05-20T11:20:42;3.70;;;2.17;;
43449;SDS011;29041;42.266;23.110;2023-05-20T11:23:29;6.72;;;2.30;;
43449;SDS011;29041;42.266;23.110;2023-05-20T11:26:16;4.22;;;2.22;;
43449;SDS011;29041;42.266;23.110;2023-05-20T11:29:03;2.10;;;1.88;;
43449;SDS011;29041;42.266;23.110;2023-05-20T11:31:51;3.47;;;1.90;;
43449;SDS011;29041;42.266;23.110;2023-05-20T11:34:38;7.25;;;2.63;;
43449;SDS011;29041;42.266;23.110;2023-05-20T11:37:26;6.45;;;2.33;;
43449;SDS011;29041;42.266;23.110;2023-05-20T11:40:14;9.05;;;2.60;;
43449;SDS011;29041;42.266;23.110;2023-05-20T11:43:02;4.25;;;2.08;;
43449;SDS011;29041;42.266;23.110;2023-05-20T11:45:51;3.30;;;2.60;;
43449;SDS011;29041;42.266;23.110;2023-05-20T11:48:39;5.28;;;2.80;;
43449;SDS011;29041;42.266;23.110;2023-05-20T11:51:36;2.75;;;2.05;;
43449;SDS011;29041;42.266;23.110;2023-05-20T11:54:24;3.33;;;1.60;;
43449;SDS011;29041;42.266;23.110;2023-05-20T11:57:11;2.40;;;1.55;;
43449;SDS011;29041;42.266;23.110;2023-05-20T11:59:58;3.72;;;1.60;;
43449;SDS011;29041;42.266;23.110;2023-05-20T12:02:45;3.70;;;1.80;;
43449;SDS011;29041;42.266;23.110;2023-05-20T12:05:33;3.97;;;2.58;;
43449;SDS011;29041;42.266;23.110;2023-05-20T12:08:21;2.92;;;1.75;;
43449;SDS011;29041;42.266;23.110;2023-05-20T12:11:13;4.72;;;2.70;;
43449;SDS011;29041;42.266;23.110;2023-05-20T12:14:00;5.23;;;2.60;;
43449;SDS011;29041;42.266;23.110;2023-05-20T12:16:47;3.13;;;2.03;;
43449;SDS011;29041;42.266;23.110;2023-05-20T12:19:33;2.40;;;1.95;;
43449;SDS011;29041;42.266;23.110;2023-05-20T12:22:22;3.08;;;2.30;;
43449;SDS011;29041;42.266;23.110;2023-05-20T12:25:09;3.83;;;2.50;;
43449;SDS011;29041;42.266;23.110;2023-05-20T12:27:57;3.08;;;1.98;;
43449;SDS011;29041;42.266;23.110;2023-05-20T12:30:44;4.43;;;2.15;;
43449;SDS011;29041;42.266;23.110;2023-05-20T12:33:31;4.90;;;2.15;;
43449;SDS011;29041;42.266;23.110;2023-05-20T12:36:18;3.25;;;2.53;;
43449;SDS011;29041;42.266;23.110;2023-05-20T12:39:06;4.20;;;2.63;;
43449;SDS011;29041;42.266;23.110;2023-05-20T12:41:55;4.22;;;2.80;;
43449;SDS011;29041;42.266;23.110;2023-05-20T12:44:42;3.60;;;2.03;;
43449;SDS011;29041;42.266;23.110;2023-05-20T12:47:29;5.15;;;2.53;;
43449;SDS011;29041;42.266;23.110;2023-05-20T12:50:16;3.65;;;2.45;;
43449;SDS011;29041;42.266;23.110;2023-05-20T12:53:03;4.22;;;2.53;;
43449;SDS011;29041;42.266;23.110;2023-05-20T12:55:51;4.38;;;2.45;;
43449;SDS011;29041;42.266;23.110;2023-05-20T12:58:38;3.85;;;2.20;;
43449;SDS011;29041;42.266;23.110;2023-05-20T13:01:24;3.03;;;2.17;;
43449;SDS011;29041;42.266;23.110;2023-05-20T13:04:11;5.15;;;2.63;;
43449;SDS011;29041;42.266;23.110;2023-05-20T13:06:58;1.73;;;1.27;;
43449;SDS011;29041;42.266;23.110;2023-05-20T13:09:45;3.17;;;1.92;;
43449;SDS011;29041;42.266;23.110;2023-05-20T13:12:34;3.08;;;1.95;;
43449;SDS011;29041;42.266;23.110;2023-05-20T13:15:21;2.85;;;1.80;;
43449;SDS011;29041;42.266;23.110;2023-05-20T13:18:08;3.22;;;2.08;;
43449;SDS011;29041;42.266;23.110;2023-05-20T13:20:55;5.82;;;2.30;;
43449;SDS011;29041;42.266;23.110;2023-05-20T13:23:42;2.97;;;1.65;;
43449;SDS011;29041;42.266;23.110;2023-05-20T13:26:29;2.10;;;1.88;;
43449;SDS011;29041;42.266;23.110;2023-05-20T13:29:17;3.10;;;2.13;;
43449;SDS011;29041;42.266;23.110;2023-05-20T13:32:04;4.15;;;2.33;;
43449;SDS011;29041;42.266;23.110;2023-05-20T13:34:51;3.13;;;2.00;;
43449;SDS011;29041;42.266;23.110;2023-05-20T13:37:38;4.07;;;2.03;;
43449;SDS011;29041;42.266;23.110;2023-05-20T13:40:25;2.45;;;1.80;;
43449;SDS011;29041;42.266;23.110;2023-05-20T13:43:11;2.80;;;2.08;;
43449;SDS011;29041;42.266;23.110;2023-05-20T13:46:00;5.30;;;2.63;;
43449;SDS011;29041;42.266;23.110;2023-05-20T13:48:46;2.97;;;2.25;;
43449;SDS011;29041;42.266;23.110;2023-05-20T13:51:33;6.18;;;2.58;;
43449;SDS011;29041;42.266;23.110;2023-05-20T13:54:20;3.60;;;2.40;;
43449;SDS011;29041;42.266;23.110;2023-05-20T13:57:07;5.07;;;2.28;;
43449;SDS011;29041;42.266;23.110;2023-05-20T13:59:54;5.68;;;2.88;;
43449;SDS011;29041;42.266;23.110;2023-05-20T14:02:42;5.57;;;3.13;;
43449;SDS011;29041;42.266;23.110;2023-05-20T14:05:29;5.95;;;3.03;;
43449;SDS011;29041;42.266;23.110;2023-05-20T14:08:16;3.92;;;2.40;;
43449;SDS011;29041;42.266;23.110;2023-05-20T14:11:03;3.55;;;2.67;;
43449;SDS011;29041;42.266;23.110;2023-05-20T14:13:50;5.13;;;2.65;;
43449;SDS011;29041;42.266;23.110;2023-05-20T14:16:37;2.10;;;1.90;;
43449;SDS011;29041;42.266;23.110;2023-05-20T14:19:26;4.50;;;2.17;;
43449;SDS011;29041;42.266;23.110;2023-05-20T14:22:13;5.22;;;2.90;;
43449;SDS011;29041;42.266;23.110;2023-05-20T14:25:00;4.43;;;2.85;;
43449;SDS011;29041;42.266;23.110;2023-05-20T14:27:48;3.72;;;2.25;;
43449;SDS011;29041;42.266;23.110;2023-05-20T14:30:36;6.32;;;4.05;;
43449;SDS011;29041;42.266;23.110;2023-05-20T14:33:23;6.47;;;2.50;;
43449;SDS011;29041;42.266;23.110;2023-05-20T14:36:11;4.57;;;2.58;;
43449;SDS011;29041;42.266;23.110;2023-05-20T14:38:58;4.22;;;2.60;;
43449;SDS011;29041;42.266;23.110;2023-05-20T14:41:45;6.20;;;2.55;;
43449;SDS011;29041;42.266;23.110;2023-05-20T14:44:31;4.47;;;3.17;;
43449;SDS011;29041;42.266;23.110;2023-05-20T14:47:18;2.97;;;2.55;;
43449;SDS011;29041;42.266;23.110;2023-05-20T14:50:06;3.78;;;2.45;;
43449;SDS011;29041;42.266;23.110;2023-05-20T14:52:55;2.85;;;2.13;;
43449;SDS011;29041;42.266;23.110;2023-05-20T14:55:42;3.50;;;2.00;;
43449;SDS011;29041;42.266;23.110;2023-05-20T14:58:29;3.17;;;2.15;;
43449;SDS011;29041;42.266;23.110;2023-05-20T15:01:15;2.35;;;1.85;;
43449;SDS011;29041;42.266;23.110;2023-05-20T15:04:03;5.93;;;2.47;;
43449;SDS011;29041;42.266;23.110;2023-05-20T15:06:50;4.05;;;1.75;;
43449;SDS011;29041;42.266;23.110;2023-05-20T15:09:39;2.95;;;1.98;;
43449;SDS011;29041;42.266;23.110;2023-05-20T15:12:26;3.33;;;2.15;;
43449;SDS011;29041;42.266;23.110;2023-05-20T15:15:13;2.25;;;2.00;;
43449;SDS011;29041;42.266;23.110;2023-05-20T15:18:00;4.30;;;2.05;;
43449;SDS011;29041;42.266;23.110;2023-05-20T15:20:47;2.97;;;2.13;;
43449;SDS011;29041;42.266;23.110;2023-05-20T15:23:33;3.35;;;2.13;;
43449;SDS011;29041;42.266;23.110;2023-05-20T15:26:22;2.45;;;1.85;;
43449;SDS011;29041;42.266;23.110;2023-05-20T15:29:09;4.55;;;1.98;;
43449;SDS011;29041;42.266;23.110;2023-05-20T15:31:56;3.05;;;1.83;;
43449;SDS011;29041;42.266;23.110;2023-05-20T15:34:43;3.88;;;1.23;;
43449;SDS011;29041;42.266;23.110;2023-05-20T15:37:30;3.92;;;1.52;;
43449;SDS011;29041;42.266;23.110;2023-05-20T15:40:17;2.65;;;1.60;;
43449;SDS011;29041;42.266;23.110;2023-05-20T15:43:05;4.10;;;1.30;;
43449;SDS011;29041;42.266;23.110;2023-05-20T15:45:52;2.22;;;1.52;;
43449;SDS011;29041;42.266;23.110;2023-05-20T15:48:39;4.80;;;2.08;;
43449;SDS011;29041;42.266;23.110;2023-05-20T15:51:26;1.90;;;1.50;;
43449;SDS011;29041;42.266;23.110;2023-05-20T15:54:13;3.30;;;1.42;;
43449;SDS011;29041;42.266;23.110;2023-05-20T15:57:00;3.28;;;2.17;;
43449;SDS011;29041;42.266;23.110;2023-05-20T15:59:49;2.63;;;1.75;;
43449;SDS011;29041;42.266;23.110;2023-05-20T16:02:36;3.00;;;1.92;;
43449;SDS011;29041;42.266;23.110;2023-05-20T16:05:24;3.58;;;2.08;;
43449;SDS011;29041;42.266;23.110;2023-05-20T16:08:11;2.70;;;1.40;;
43449;SDS011;29041;42.266;23.110;2023-05-20T16:10:58;3.67;;;1.55;;
43449;SDS011;29041;42.266;23.110;2023-05-20T16:13:45;2.25;;;1.42;;
43449;SDS011;29041;42.266;23.110;2023-05-20T16:16:33;2.53;;;1.45;;
43449;SDS011;29041;42.266;23.110;2023-05-20T16:19:20;2.33;;;1.40;;
43449;SDS011;29041;42.266;23.110;2023-05-20T16:22:07;2.60;;;1.75;;
43449;SDS011;29041;42.266;23.110;2023-05-20T16:24:54;2.72;;;1.40;;
43449;SDS011;29041;42.266;23.110;2023-05-20T16:27:41;3.35;;;1.42;;
43449;SDS011;29041;42.266;23.110;2023-05-20T16:30:27;3.95;;;2.38;;
43449;SDS011;29041;42.266;23.110;2023-05-20T16:33:16;6.82;;;1.83;;
43449;SDS011;29041;42.266;23.110;2023-05-20T16:36:03;2.35;;;1.58;;
43449;SDS011;29041;42.266;23.110;2023-05-20T16:38:49;1.98;;;1.50;;